ZSSS METAR and TAF | Updated Today

ZSSS METAR

Shanghai Hongqiao International Airport

Observation time: 19 min. ago

ZSSS 291100Z 21002MPS 9999 SCT011 24/22 Q1001 BECMG TL1230 BKN011 OVC040

Need help? Read our tutorial on how to read METARs or read the parsed version below.

Shanghai Hongqiao International Airport (ZSSS) METAR

  • Weather conditions on Sun, 29 May 2022 11:00:00 +0000 (19 min. ago):
  • Present conditions: Dry
  • Clouds: Scattered at 335 meters
  • Visibility: Greater than 10 km
  • Wind: 210 degrees at 2 knots
  • Temperature: 24 celsius
  • Dew point: 22 celsius
  • Pressure: 1001 millibars
  • Remarks: None


Useful to know...

ZSSS TAF

Shanghai Hongqiao International Airport

TAF ZSSS 290311Z 2906/3006 21004MPS 6000 BKN008 TX24/2906Z TN22/2921Z BECMG 3000/3002 BKN011
Observation time: 8:08 hr. ago
Need help? Read our tutorial on how to read TAFs or read the parsed version below.

Parsed version of TAF for Shanghai Hongqiao International Airport (ZSSS)

  • From 29 May at 06:00 UTC, to day 30 of the month at 06:00 UTC
  • Clouds: Broken sky at 244 meters
  • Visibility: 6000 meters
  • Wind: 210 degrees at 4
  • Expected to arise soon, from 30 May at 00:00 UTC, to day 30 of the month at 02:00 UTC
  • Clouds: Broken sky at 335 meters